sensor_id;sensor_type;location;lat;lon;timestamp;P1;durP1;ratioP1;P2;durP2;ratioP2
8331;SDS011;4203;48.144;14.118;2024-01-07T18:46:31;15.83;;;9.97;;
8331;SDS011;4203;48.144;14.118;2024-01-07T18:49:25;15.33;;;9.60;;
8331;SDS011;4203;48.144;14.118;2024-01-07T18:54:53;15.40;;;10.43;;
8331;SDS011;4203;48.144;14.118;2024-01-07T19:00:03;15.27;;;9.33;;
8331;SDS011;4203;48.144;14.118;2024-01-07T19:02:42;14.93;;;10.27;;
8331;SDS011;4203;48.144;14.118;2024-01-07T19:05:12;14.27;;;10.13;;
8331;SDS011;4203;48.144;14.118;2024-01-07T19:11:03;15.80;;;10.33;;
8331;SDS011;4203;48.144;14.118;2024-01-07T19:13:34;16.10;;;10.17;;
8331;SDS011;4203;48.144;14.118;2024-01-07T19:16:02;15.93;;;10.43;;
8331;SDS011;4203;48.144;14.118;2024-01-07T19:18:36;17.63;;;11.50;;
8331;SDS011;4203;48.144;14.118;2024-01-07T19:21:04;15.00;;;9.93;;
8331;SDS011;4203;48.144;14.118;2024-01-07T19:23:32;17.13;;;10.67;;
8331;SDS011;4203;48.144;14.118;2024-01-07T19:26:02;13.03;;;9.67;;
8331;SDS011;4203;48.144;14.118;2024-01-07T19:28:35;17.53;;;10.57;;
8331;SDS011;4203;48.144;14.118;2024-01-07T19:31:06;18.87;;;11.00;;
8331;SDS011;4203;48.144;14.118;2024-01-07T19:33:36;14.50;;;10.53;;
8331;SDS011;4203;48.144;14.118;2024-01-07T19:36:08;15.50;;;10.50;;
8331;SDS011;4203;48.144;14.118;2024-01-07T19:38:37;15.40;;;9.93;;
8331;SDS011;4203;48.144;14.118;2024-01-07T19:41:05;15.50;;;10.20;;
8331;SDS011;4203;48.144;14.118;2024-01-07T19:43:32;14.03;;;10.17;;
8331;SDS011;4203;48.144;14.118;2024-01-07T19:46:01;14.07;;;10.37;;
8331;SDS011;4203;48.144;14.118;2024-01-07T19:48:29;18.37;;;10.80;;
8331;SDS011;4203;48.144;14.118;2024-01-07T19:50:59;16.03;;;10.70;;
8331;SDS011;4203;48.144;14.118;2024-01-07T19:53:28;14.80;;;10.30;;
8331;SDS011;4203;48.144;14.118;2024-01-07T19:55:56;18.00;;;11.17;;
8331;SDS011;4203;48.144;14.118;2024-01-07T19:58:33;16.93;;;10.97;;
8331;SDS011;4203;48.144;14.118;2024-01-07T20:01:02;13.90;;;10.23;;
8331;SDS011;4203;48.144;14.118;2024-01-07T20:03:33;19.13;;;11.07;;
8331;SDS011;4203;48.144;14.118;2024-01-07T20:06:07;17.30;;;10.33;;
8331;SDS011;4203;48.144;14.118;2024-01-07T20:08:42;16.10;;;11.07;;
8331;SDS011;4203;48.144;14.118;2024-01-07T20:11:18;17.80;;;11.53;;
8331;SDS011;4203;48.144;14.118;2024-01-07T20:13:53;16.90;;;10.53;;
8331;SDS011;4203;48.144;14.118;2024-01-07T20:16:34;16.03;;;11.17;;
8331;SDS011;4203;48.144;14.118;2024-01-07T20:19:06;15.80;;;10.53;;
8331;SDS011;4203;48.144;14.118;2024-01-07T20:21:36;17.97;;;10.23;;
8331;SDS011;4203;48.144;14.118;2024-01-07T20:24:07;13.70;;;9.27;;
8331;SDS011;4203;48.144;14.118;2024-01-07T20:29:57;14.77;;;9.90;;
8331;SDS011;4203;48.144;14.118;2024-01-07T20:32:25;16.57;;;10.83;;
8331;SDS011;4203;48.144;14.118;2024-01-07T20:34:53;15.20;;;10.60;;
8331;SDS011;4203;48.144;14.118;2024-01-07T20:40:47;18.77;;;10.60;;
8331;SDS011;4203;48.144;14.118;2024-01-07T20:43:16;13.03;;;8.73;;
8331;SDS011;4203;48.144;14.118;2024-01-07T20:45:43;14.10;;;9.20;;
8331;SDS011;4203;48.144;14.118;2024-01-07T20:51:35;13.03;;;9.27;;
8331;SDS011;4203;48.144;14.118;2024-01-07T20:54:06;13.80;;;9.20;;
8331;SDS011;4203;48.144;14.118;2024-01-07T20:56:40;13.80;;;9.40;;
8331;SDS011;4203;48.144;14.118;2024-01-07T20:59:08;15.27;;;9.97;;
8331;SDS011;4203;48.144;14.118;2024-01-07T21:01:38;11.97;;;9.20;;
8331;SDS011;4203;48.144;14.118;2024-01-07T21:04:11;14.73;;;10.50;;
8331;SDS011;4203;48.144;14.118;2024-01-07T21:06:55;15.20;;;10.43;;
8331;SDS011;4203;48.144;14.118;2024-01-07T21:09:23;14.77;;;10.33;;
8331;SDS011;4203;48.144;14.118;2024-01-07T21:11:54;13.93;;;9.13;;
8331;SDS011;4203;48.144;14.118;2024-01-07T21:14:36;13.33;;;9.10;;
8331;SDS011;4203;48.144;14.118;2024-01-07T21:23:30;12.83;;;7.93;;
8331;SDS011;4203;48.144;14.118;2024-01-07T21:26:00;12.87;;;9.73;;
8331;SDS011;4203;48.144;14.118;2024-01-07T21:28:35;11.83;;;9.03;;
8331;SDS011;4203;48.144;14.118;2024-01-07T21:31:07;11.43;;;8.03;;
8331;SDS011;4203;48.144;14.118;2024-01-07T21:33:37;10.17;;;7.80;;
8331;SDS011;4203;48.144;14.118;2024-01-07T21:36:06;12.67;;;7.73;;
8331;SDS011;4203;48.144;14.118;2024-01-07T21:38:41;13.10;;;8.20;;
8331;SDS011;4203;48.144;14.118;2024-01-07T21:41:09;9.40;;;7.03;;
8331;SDS011;4203;48.144;14.118;2024-01-07T21:43:41;8.33;;;6.17;;
8331;SDS011;4203;48.144;14.118;2024-01-07T21:46:08;8.37;;;6.77;;
8331;SDS011;4203;48.144;14.118;2024-01-07T21:48:40;9.03;;;6.93;;
8331;SDS011;4203;48.144;14.118;2024-01-07T21:51:19;8.53;;;6.73;;
8331;SDS011;4203;48.144;14.118;2024-01-07T21:53:56;8.77;;;6.13;;
8331;SDS011;4203;48.144;14.118;2024-01-07T22:00:02;9.10;;;6.40;;
8331;SDS011;4203;48.144;14.118;2024-01-07T22:02:34;7.93;;;5.97;;
8331;SDS011;4203;48.144;14.118;2024-01-07T22:05:01;9.27;;;6.27;;
8331;SDS011;4203;48.144;14.118;2024-01-07T22:07:46;10.07;;;6.63;;
8331;SDS011;4203;48.144;14.118;2024-01-07T22:10:18;11.30;;;6.07;;
8331;SDS011;4203;48.144;14.118;2024-01-07T22:12:47;7.90;;;6.40;;
8331;SDS011;4203;48.144;14.118;2024-01-07T22:15:20;7.57;;;5.80;;
8331;SDS011;4203;48.144;14.118;2024-01-07T22:17:57;8.80;;;6.20;;
8331;SDS011;4203;48.144;14.118;2024-01-07T22:20:25;7.03;;;6.33;;
8331;SDS011;4203;48.144;14.118;2024-01-07T22:22:56;7.87;;;5.90;;
8331;SDS011;4203;48.144;14.118;2024-01-07T22:25:25;8.80;;;5.87;;
8331;SDS011;4203;48.144;14.118;2024-01-07T22:31:16;8.23;;;5.87;;
8331;SDS011;4203;48.144;14.118;2024-01-07T22:33:44;9.63;;;6.33;;
8331;SDS011;4203;48.144;14.118;2024-01-07T22:36:12;10.00;;;7.03;;
8331;SDS011;4203;48.144;14.118;2024-01-07T22:38:43;7.57;;;6.07;;
8331;SDS011;4203;48.144;14.118;2024-01-07T22:41:11;7.67;;;6.00;;
8331;SDS011;4203;48.144;14.118;2024-01-07T22:43:39;7.77;;;5.97;;
8331;SDS011;4203;48.144;14.118;2024-01-07T22:46:07;8.20;;;5.97;;
8331;SDS011;4203;48.144;14.118;2024-01-07T22:48:37;10.67;;;6.37;;
8331;SDS011;4203;48.144;14.118;2024-01-07T22:51:06;8.97;;;5.53;;
8331;SDS011;4203;48.144;14.118;2024-01-07T22:53:34;8.27;;;6.17;;
8331;SDS011;4203;48.144;14.118;2024-01-07T22:56:01;8.53;;;5.87;;
8331;SDS011;4203;48.144;14.118;2024-01-07T22:58:30;7.83;;;5.80;;
8331;SDS011;4203;48.144;14.118;2024-01-07T23:00:57;7.43;;;5.83;;
8331;SDS011;4203;48.144;14.118;2024-01-07T23:03:24;6.53;;;5.80;;
8331;SDS011;4203;48.144;14.118;2024-01-07T23:05:53;8.43;;;5.93;;
8331;SDS011;4203;48.144;14.118;2024-01-07T23:11:41;7.50;;;5.77;;
8331;SDS011;4203;48.144;14.118;2024-01-07T23:14:09;8.10;;;6.27;;
8331;SDS011;4203;48.144;14.118;2024-01-07T23:16:36;8.77;;;6.67;;
8331;SDS011;4203;48.144;14.118;2024-01-07T23:19:05;10.27;;;7.07;;
8331;SDS011;4203;48.144;14.118;2024-01-07T23:21:34;11.77;;;8.20;;
8331;SDS011;4203;48.144;14.118;2024-01-07T23:24:01;11.33;;;7.10;;
8331;SDS011;4203;48.144;14.118;2024-01-07T23:29:40;11.77;;;6.77;;
8331;SDS011;4203;48.144;14.118;2024-01-07T23:32:07;7.93;;;6.57;;
8331;SDS011;4203;48.144;14.118;2024-01-07T23:34:51;8.57;;;6.93;;
8331;SDS011;4203;48.144;14.118;2024-01-07T23:37:21;11.03;;;7.20;;
8331;SDS011;4203;48.144;14.118;2024-01-07T23:39:50;10.13;;;6.90;;
8331;SDS011;4203;48.144;14.118;2024-01-07T23:42:17;11.13;;;6.57;;
8331;SDS011;4203;48.144;14.118;2024-01-07T23:44:45;8.90;;;6.40;;
8331;SDS011;4203;48.144;14.118;2024-01-07T23:50:29;8.77;;;5.83;;
8331;SDS011;4203;48.144;14.118;2024-01-07T23:52:58;9.50;;;6.23;;
8331;SDS011;4203;48.144;14.118;2024-01-07T23:55:25;6.07;;;5.47;;
8331;SDS011;4203;48.144;14.118;2024-01-07T23:57:55;8.37;;;6.10;;
